Ellis, KS

5:10 AM CST on January 19, 2017 (GMT -0600)
Fairgrounds | | Change Station

Elev 2083 ft 38.91 °N, 99.37 °W | Updated 1 minute ago

Overcast
Overcast
44.3 °F
Feels Like 40 °F
N
7.0
Wind Variable Wind from SE
Gusts 11.0 mph

Today
High -- | Low -- °F
--% Chance of Precip.
Yesterday
High -- | Low -- °F
Precip. -- in
Pressure 29.70 in
Visibility 9.0 miles
Clouds Overcast 1200 ft
Windchill 40 °F
Dew Point 43 °F
Humidity 94%
Rainfall 0.00 in
Snow Depth Not available.
7:53 AM 5:45 PM
Waning Gibbous, 54% visible
METAR KHYS 191056Z AUTO 16008KT 9SM OVC012 07/06 A2970 RMK AO2 SLP057 T00670056
Pressure 29.70 in
Visibility 9.0 miles
Clouds Overcast 1200 ft
Windchill 40 °F
Dew Point 43 °F
Humidity 94%
Rainfall 0.00 in
Snow Depth Not available.
7:53 AM 5:45 PM
Waning Gibbous, 54% visible
METAR KHYS 191056Z AUTO 16008KT 9SM OVC012 07/06 A2970 RMK AO2 SLP057 T00670056

Get Your Daily Forecast Email!

Thanks for signing up!

Be on the lookout for a verification email in your inbox.

You'll start receiving the daily forecast at 8 AM.

×

10-Day Weather Forecast

Almanac

Astronomy

Jan. 19, 2017 Rise Set
Actual Time
Civil Twilight
Nautical Twilight
Astronomical Twilight
Moon
Length of Visible Light
Length of Day
Tomorrow will be .
, % of the Moon is Illuminated

Today's Extremes

State Highs State Lows

Community

WunderPhotos

Upload Photos

1,962,540 photos uploaded!

WunderBlog® & News

Nearby

Air Quality

  Air Quality AQ Index Pollutant
Not available.

Snow Depth

Station Depth Elevation

Earthquake Activity

City Distance Mag. Time & Date
Minimum magnitude displayed is 2.5.

Coastal Water Temperatures

Place Temperature

Stations

Nearby Weather Stations

Station Location Temp. Windchill Dew Point Humidity Wind Precip. Elev Updated Type
                   

Watches & Warnings

There are currently no watches in effect.